Northfield Center, Ohio
Current Conditions -  °F | °C
As of 1:53 PM on Thursday 23 Oct 2014 (Local Time) from KBKL Reporting Station
Broken Clouds Broken Clouds  
Wind Chill: 53°   Ceiling: 1500
Heat Index: 53°   Visibility: 10mi
Dew Point: 45°   Wind: 9mph
Humidity: 74%   Direction: 310°NW
Pressure: 30.17"   Gusts: NA
Location:  41.3128°N, 81.5476°W
Report Text: KBKL 231753Z 31008KT 10SM BKN015 12/07 A3017 RMK AO2 SLP219 T01170072 10128 20106 58011
Loading
Personal Weather Stations






























Interactive Weather Map
Tropical Storm Tracking
New forecast layout! Learn more

10-Day Weather Forecast

Advertisements
Track Severe Weather on mobile